createdAt,value
2018-04-10T00:00:17.221Z,14.30
2018-04-10T00:01:17.219Z,13.20
2018-04-10T00:02:17.198Z,16.30
2018-04-10T00:03:17.215Z,15.50
2018-04-10T00:04:17.233Z,13.90
2018-04-10T00:05:17.254Z,13.90
2018-04-10T00:06:17.267Z,14.80
2018-04-10T00:07:17.282Z,16.20
2018-04-10T00:08:17.300Z,17.50
2018-04-10T00:09:17.319Z,20.40
2018-04-10T00:10:17.335Z,18.10
2018-04-10T00:11:17.353Z,16.60
2018-04-10T00:12:17.367Z,20.70
2018-04-10T00:13:17.394Z,16.10
2018-04-10T00:14:17.401Z,17.00
2018-04-10T00:15:17.468Z,20.20
2018-04-10T00:16:17.435Z,15.10
2018-04-10T00:17:17.454Z,19.30
2018-04-10T00:18:17.471Z,16.40
2018-04-10T00:19:17.488Z,19.40
2018-04-10T00:20:17.505Z,18.60
2018-04-10T00:21:17.521Z,18.90
2018-04-10T00:22:17.539Z,14.50
2018-04-10T00:23:17.554Z,18.80
2018-04-10T00:24:17.576Z,18.90
2018-04-10T00:25:17.593Z,16.20
2018-04-10T00:26:17.613Z,18.60
2018-04-10T00:27:17.622Z,17.90
2018-04-10T00:28:17.640Z,18.20
2018-04-10T00:29:17.659Z,20.40
2018-04-10T00:30:17.676Z,16.50
2018-04-10T00:31:17.700Z,18.50
2018-04-10T00:32:17.721Z,18.80
2018-04-10T00:33:17.727Z,18.20
2018-04-10T00:34:17.743Z,21.10
2018-04-10T00:35:17.764Z,17.30
2018-04-10T00:36:17.777Z,19.40
2018-04-10T00:37:17.893Z,21.90
2018-04-10T00:38:17.811Z,16.80
2018-04-10T00:39:17.830Z,21.80
2018-04-10T00:40:17.852Z,21.30
2018-04-10T00:41:17.864Z,19.10
2018-04-10T00:42:17.882Z,19.00
2018-04-10T00:43:17.967Z,21.00
2018-04-10T00:44:17.916Z,21.30
2018-04-10T00:45:17.984Z,24.60
2018-04-10T00:46:17.958Z,18.70
2018-04-10T00:47:17.965Z,22.90
2018-04-10T00:48:17.984Z,21.60
2018-04-10T00:49:18.074Z,19.80
2018-04-10T00:50:18.017Z,22.30
2018-04-10T00:51:18.033Z,21.70
2018-04-10T00:52:18.051Z,19.50
2018-04-10T00:53:18.077Z,24.50
2018-04-10T00:54:18.095Z,19.00
2018-04-10T00:55:18.141Z,23.50
2018-04-10T00:56:18.122Z,19.00
2018-04-10T00:57:18.150Z,19.70
2018-04-10T00:58:18.161Z,18.30
2018-04-10T00:59:18.170Z,21.40
2018-04-10T01:00:18.194Z,22.50
2018-04-10T01:01:18.203Z,22.90
2018-04-10T01:02:18.229Z,20.80
2018-04-10T01:03:18.287Z,20.40
2018-04-10T01:04:18.255Z,21.10
2018-04-10T01:05:18.282Z,17.10
2018-04-10T01:06:18.297Z,20.10
2018-04-10T01:07:18.308Z,20.10
2018-04-10T01:08:18.326Z,22.80
2018-04-10T01:09:18.401Z,19.70
2018-04-10T01:10:18.358Z,20.50
2018-04-10T01:11:18.394Z,17.50
2018-04-10T01:12:18.393Z,19.10
2018-04-10T01:13:18.410Z,21.70
2018-04-10T01:14:18.462Z,21.00
2018-04-10T01:15:18.492Z,21.20
2018-04-10T01:16:18.458Z,21.10
2018-04-10T01:17:18.486Z,21.60
2018-04-10T01:18:18.494Z,17.80
2018-04-10T01:19:18.510Z,21.80
2018-04-10T01:20:18.604Z,18.40
2018-04-10T01:21:18.604Z,20.00
2018-04-10T01:22:18.563Z,17.60
2018-04-10T01:23:18.583Z,18.80
2018-04-10T01:24:18.596Z,22.10
2018-04-10T01:25:18.616Z,21.90
2018-04-10T01:26:18.727Z,18.30
2018-04-10T01:27:18.646Z,22.10
2018-04-10T01:28:18.668Z,19.20
2018-04-10T01:29:18.683Z,16.70
2018-04-10T01:30:18.704Z,19.90
2018-04-10T01:31:18.716Z,20.40
2018-04-10T01:32:18.809Z,20.50
2018-04-10T01:33:18.801Z,20.40
2018-04-10T01:34:18.774Z,18.10
2018-04-10T01:35:18.784Z,21.50
2018-04-10T01:36:18.810Z,19.90
2018-04-10T01:37:18.830Z,19.10
2018-04-10T01:38:18.908Z,20.60
2018-04-10T01:39:18.850Z,18.50
2018-04-10T01:40:18.870Z,18.50
2018-04-10T01:41:18.886Z,21.00
2018-04-10T01:42:18.900Z,22.50
2018-04-10T01:43:18.917Z,21.60
2018-04-10T01:44:18.990Z,18.50
2018-04-10T01:45:19.000Z,20.20
2018-04-10T01:46:18.980Z,17.50
2018-04-10T01:47:18.988Z,17.10
2018-04-10T01:48:19.001Z,21.70
2018-04-10T01:49:19.022Z,20.60
2018-04-10T01:50:19.121Z,20.10
2018-04-10T01:51:19.104Z,15.50
2018-04-10T01:52:19.071Z,16.90
2018-04-10T01:53:19.096Z,16.90
2018-04-10T01:54:19.101Z,17.10
2018-04-10T01:55:19.128Z,21.20
2018-04-10T01:56:19.137Z,22.20
2018-04-10T01:57:19.210Z,19.70
2018-04-10T01:58:19.177Z,18.30
2018-04-10T01:59:19.191Z,19.20
2018-04-10T02:00:19.213Z,19.10
2018-04-10T02:01:19.221Z,23.00
2018-04-10T02:02:19.248Z,19.30
2018-04-10T02:03:19.308Z,17.50
2018-04-10T02:04:19.274Z,19.90
2018-04-10T02:05:19.289Z,16.70
2018-04-10T02:06:19.303Z,21.70
2018-04-10T02:07:19.321Z,19.50
2018-04-10T02:08:19.395Z,20.40
2018-04-10T02:09:19.439Z,18.70
2018-04-10T02:10:19.377Z,17.60
2018-04-10T02:11:19.388Z,17.30
2018-04-10T02:12:19.404Z,17.60
2018-04-10T02:13:19.430Z,13.50
2018-04-10T02:14:19.436Z,17.40
2018-04-10T02:15:19.517Z,15.40
2018-04-10T02:16:19.487Z,16.00
2018-04-10T02:17:19.488Z,16.20
2018-04-10T02:18:19.506Z,17.20
2018-04-10T02:19:19.530Z,15.20
2018-04-10T02:20:19.544Z,17.00
2018-04-10T02:21:19.607Z,14.90
2018-04-10T02:22:19.573Z,16.10
2018-04-10T02:23:19.593Z,15.80
2018-04-10T02:24:19.673Z,16.50
2018-04-10T02:25:19.832Z,13.70
2018-04-10T02:26:19.852Z,14.60
2018-04-10T02:27:19.664Z,16.60
2018-04-10T02:28:19.875Z,14.60
2018-04-10T02:29:19.890Z,12.60
2018-04-10T02:30:19.703Z,14.30
2018-04-10T02:31:19.723Z,17.00
2018-04-10T02:32:19.745Z,12.90
2018-04-10T02:33:19.809Z,15.00
2018-04-10T02:34:19.773Z,14.20
2018-04-10T02:35:19.789Z,14.80
2018-04-10T02:36:19.806Z,16.20
2018-04-10T02:37:19.824Z,14.70
2018-04-10T02:38:19.837Z,15.10
2018-04-10T02:39:19.955Z,18.00
2018-04-10T02:40:19.879Z,14.20
2018-04-10T02:41:19.888Z,12.60
2018-04-10T02:42:19.904Z,15.30
2018-04-10T02:43:19.923Z,15.50
2018-04-10T02:44:19.946Z,13.10
2018-04-10T02:45:20.011Z,15.80
2018-04-10T02:46:19.970Z,15.10
2018-04-10T02:47:19.992Z,16.40
2018-04-10T02:48:20.013Z,19.30
2018-04-10T02:49:20.020Z,16.80
2018-04-10T02:50:20.035Z,15.60
2018-04-10T02:51:20.104Z,15.80
2018-04-10T02:52:20.077Z,16.40
2018-04-10T02:53:20.097Z,15.80
2018-04-10T02:54:20.109Z,17.80
2018-04-10T02:55:20.117Z,16.80
2018-04-10T02:56:20.133Z,17.70
2018-04-10T02:57:20.150Z,16.80
2018-04-10T02:58:20.225Z,17.10
2018-04-10T02:59:20.180Z,15.90
2018-04-10T03:00:20.205Z,15.40
2018-04-10T03:01:20.216Z,17.10
2018-04-10T03:02:20.233Z,16.30
2018-04-10T03:03:20.295Z,19.40
2018-04-10T03:04:20.332Z,19.00
2018-04-10T03:05:20.282Z,20.50
2018-04-10T03:06:20.295Z,18.20
2018-04-10T03:07:20.325Z,16.60
2018-04-10T03:08:20.328Z,18.20
2018-04-10T03:09:20.349Z,17.70
2018-04-10T03:10:20.367Z,18.40
2018-04-10T03:11:20.375Z,21.00
2018-04-10T03:12:20.395Z,20.80
2018-04-10T03:13:20.418Z,17.10
2018-04-10T03:14:20.426Z,17.80
2018-04-10T03:15:20.495Z,19.10
2018-04-10T03:16:20.460Z,15.80
2018-04-10T03:17:20.474Z,17.60
2018-04-10T03:18:20.491Z,18.10
2018-04-10T03:19:20.507Z,14.90
2018-04-10T03:20:20.526Z,15.50
2018-04-10T03:21:20.545Z,17.60
2018-04-10T03:22:20.607Z,14.10
2018-04-10T03:23:20.580Z,18.30
2018-04-10T03:24:20.590Z,18.00
2018-04-10T03:25:20.603Z,15.30
2018-04-10T03:26:20.618Z,14.50
2018-04-10T03:27:20.636Z,12.90
2018-04-10T03:28:20.655Z,15.60
2018-04-10T03:29:20.670Z,16.30
2018-04-10T03:30:20.685Z,14.80
2018-04-10T03:31:20.709Z,16.80
2018-04-10T03:32:20.716Z,13.40
2018-04-10T03:33:20.735Z,12.70
2018-04-10T03:34:20.752Z,14.20
2018-04-10T03:35:20.767Z,11.20
2018-04-10T03:36:20.791Z,15.40
2018-04-10T03:37:20.800Z,11.30
2018-04-10T03:38:20.821Z,13.00
2018-04-10T03:39:20.886Z,15.40
2018-04-10T03:40:20.854Z,16.40
2018-04-10T03:41:20.891Z,16.10
2018-04-10T03:42:20.876Z,16.10
2018-04-10T03:43:20.893Z,12.00
2018-04-10T03:44:20.913Z,15.70
2018-04-10T03:45:20.990Z,16.10
2018-04-10T03:46:20.944Z,14.50
2018-04-10T03:47:20.957Z,16.30
2018-04-10T03:48:20.981Z,14.40
2018-04-10T03:49:20.998Z,15.00
2018-04-10T03:50:21.013Z,14.80
2018-04-10T03:51:21.030Z,15.20
2018-04-10T03:52:21.034Z,15.30
2018-04-10T03:53:21.062Z,18.30
2018-04-10T03:54:21.110Z,17.40
2018-04-10T03:55:21.086Z,17.30
2018-04-10T03:56:21.103Z,15.00
2018-04-10T03:57:21.127Z,12.80
2018-04-10T03:58:21.140Z,13.30
2018-04-10T03:59:21.159Z,9.50
2018-04-10T04:00:21.198Z,11.00
2018-04-10T04:01:21.180Z,13.10
2018-04-10T04:02:21.195Z,11.60
2018-04-10T04:03:21.262Z,11.90
2018-04-10T04:04:21.230Z,11.20
2018-04-10T04:05:21.242Z,12.20
2018-04-10T04:06:21.257Z,13.40
2018-04-10T04:07:21.277Z,12.30
2018-04-10T04:08:21.302Z,12.80
2018-04-10T04:09:21.311Z,8.30
2018-04-10T04:10:21.323Z,8.30
2018-04-10T04:11:21.340Z,8.20
2018-04-10T04:12:21.359Z,5.30
2018-04-10T04:13:21.379Z,8.00
2018-04-10T04:14:21.395Z,6.20
2018-04-10T04:15:21.456Z,6.60
2018-04-10T04:16:21.418Z,6.10
2018-04-10T04:17:21.435Z,8.10
2018-04-10T04:18:21.460Z,8.90
2018-04-10T04:19:21.466Z,8.80
2018-04-10T04:20:21.485Z,8.50
2018-04-10T04:21:21.502Z,7.70
2018-04-10T04:22:21.513Z,7.50
2018-04-10T04:23:21.534Z,11.50
2018-04-10T04:24:21.612Z,11.00
2018-04-10T04:25:21.578Z,11.60
2018-04-10T04:26:21.580Z,9.60
2018-04-10T04:27:21.595Z,10.20
2018-04-10T04:28:21.610Z,9.40
2018-04-10T04:29:21.638Z,12.20
2018-04-10T04:30:21.741Z,9.10
2018-04-10T04:31:21.661Z,10.40
2018-04-10T04:32:21.679Z,10.10
2018-04-10T04:33:21.743Z,8.80
2018-04-10T04:34:21.709Z,9.30
2018-04-10T04:35:21.725Z,12.80
2018-04-10T04:36:21.758Z,10.40
2018-04-10T04:37:21.765Z,12.90
2018-04-10T04:38:21.775Z,11.00
2018-04-10T04:39:21.846Z,12.90
2018-04-10T04:40:21.811Z,11.60
2018-04-10T04:41:21.821Z,14.40
2018-04-10T04:42:21.899Z,13.20
2018-04-10T04:43:21.853Z,12.50
2018-04-10T04:44:21.867Z,14.50
2018-04-10T04:45:21.939Z,15.30
2018-04-10T04:46:21.902Z,16.30
2018-04-10T04:47:21.925Z,15.50
2018-04-10T04:48:21.933Z,18.70
2018-04-10T04:49:21.946Z,17.80
2018-04-10T04:50:21.965Z,14.90
2018-04-10T04:51:22.029Z,18.00
2018-04-10T04:52:21.995Z,15.80
2018-04-10T04:53:22.014Z,15.80
2018-04-10T04:54:22.071Z,15.20
2018-04-10T04:55:22.045Z,17.50
2018-04-10T04:56:22.104Z,17.00
2018-04-10T04:57:22.128Z,17.70
2018-04-10T04:58:22.095Z,15.10
2018-04-10T04:59:22.107Z,12.10
2018-04-10T05:00:22.149Z,12.20
2018-04-10T05:01:22.153Z,14.50
2018-04-10T05:02:22.158Z,12.90
2018-04-10T05:03:22.178Z,16.60
2018-04-10T05:04:22.192Z,16.70
2018-04-10T05:05:22.215Z,16.90
2018-04-10T05:06:22.280Z,15.30
2018-04-10T05:07:22.238Z,15.80
2018-04-10T05:08:22.266Z,15.50
2018-04-10T05:09:22.330Z,13.30
2018-04-10T05:10:22.288Z,9.50
2018-04-10T05:11:22.304Z,12.20
2018-04-10T05:12:22.406Z,13.30
2018-04-10T05:13:22.339Z,12.20
2018-04-10T05:14:22.354Z,10.90
2018-04-10T05:15:22.440Z,13.90
2018-04-10T05:16:22.387Z,10.40
2018-04-10T05:17:22.405Z,10.70
2018-04-10T05:18:22.435Z,9.90
2018-04-10T05:19:22.435Z,9.50
2018-04-10T05:20:22.451Z,6.50
2018-04-10T05:21:22.521Z,7.40
2018-04-10T05:22:22.493Z,6.60
2018-04-10T05:23:22.501Z,8.00
2018-04-10T05:24:22.556Z,6.40
2018-04-10T05:25:22.543Z,5.30
2018-04-10T05:26:22.549Z,3.30
2018-04-10T05:27:22.565Z,3.00
2018-04-10T05:28:22.580Z,3.50
2018-04-10T05:29:22.596Z,3.40
2018-04-10T05:30:22.614Z,3.30
2018-04-10T05:31:22.627Z,2.00
2018-04-10T05:32:22.655Z,2.40
2018-04-10T05:33:22.663Z,3.00
2018-04-10T05:34:22.680Z,2.50
2018-04-10T05:35:22.697Z,3.30
2018-04-10T05:36:22.717Z,4.50
2018-04-10T05:37:22.727Z,5.40
2018-04-10T05:38:22.750Z,5.00
2018-04-10T05:39:22.811Z,4.60
2018-04-10T05:40:22.777Z,5.20
2018-04-10T05:41:22.795Z,7.80
2018-04-10T05:42:22.817Z,7.60
2018-04-10T05:43:22.828Z,7.90
2018-04-10T05:44:22.895Z,7.80
2018-04-10T05:45:22.860Z,7.40
2018-04-10T05:46:22.876Z,8.20
2018-04-10T05:47:22.891Z,7.40
2018-04-10T05:48:22.911Z,9.30
2018-04-10T05:49:22.929Z,8.60
2018-04-10T05:50:22.952Z,8.40
2018-04-10T05:51:22.959Z,10.10
2018-04-10T05:52:22.972Z,10.80
2018-04-10T05:53:22.989Z,10.50
2018-04-10T05:54:23.006Z,10.60
2018-04-10T05:55:23.032Z,11.40
2018-04-10T05:56:23.094Z,12.40
2018-04-10T05:57:23.058Z,11.00
2018-04-10T05:58:23.073Z,8.20
2018-04-10T05:59:23.088Z,10.20
2018-04-10T06:00:23.103Z,10.30
2018-04-10T06:01:23.123Z,12.50
2018-04-10T06:02:23.199Z,12.80
2018-04-10T06:03:23.150Z,10.70
2018-04-10T06:04:23.183Z,13.70
2018-04-10T06:05:23.203Z,10.30
2018-04-10T06:06:23.204Z,10.70
2018-04-10T06:07:23.219Z,11.90
2018-04-10T06:08:23.300Z,11.50
2018-04-10T06:09:23.251Z,10.70
2018-04-10T06:10:23.266Z,13.60
2018-04-10T06:11:23.295Z,13.90
2018-04-10T06:12:23.303Z,13.40
2018-04-10T06:13:23.375Z,14.00
2018-04-10T06:14:23.335Z,12.90
2018-04-10T06:15:23.351Z,13.00
2018-04-10T06:16:23.370Z,14.20
2018-04-10T06:17:23.384Z,12.60
2018-04-10T06:18:23.410Z,12.00
2018-04-10T06:19:23.426Z,12.40
2018-04-10T06:20:23.430Z,17.20
2018-04-10T06:21:23.492Z,15.20
2018-04-10T06:22:23.463Z,11.70
2018-04-10T06:23:23.478Z,14.20
2018-04-10T06:24:23.504Z,14.50
2018-04-10T06:25:23.512Z,12.20
2018-04-10T06:26:23.528Z,12.30
2018-04-10T06:27:23.553Z,14.80
2018-04-10T06:28:23.565Z,12.90
2018-04-10T06:29:23.586Z,14.60
2018-04-10T06:30:23.600Z,13.00
2018-04-10T06:31:23.620Z,11.30
2018-04-10T06:32:23.629Z,13.00
2018-04-10T06:33:23.646Z,12.60
2018-04-10T06:34:23.662Z,14.20
2018-04-10T06:35:23.688Z,13.70
2018-04-10T06:36:23.705Z,14.50
2018-04-10T06:37:23.769Z,13.30
2018-04-10T06:38:23.785Z,12.20
2018-04-10T06:39:23.743Z,16.10
2018-04-10T06:40:23.761Z,12.00
2018-04-10T06:41:23.783Z,12.90
2018-04-10T06:42:23.803Z,11.00
2018-04-10T06:43:23.822Z,11.30
2018-04-10T06:44:23.876Z,9.50
2018-04-10T06:45:23.844Z,11.40
2018-04-10T06:46:23.858Z,12.10
2018-04-10T06:47:23.878Z,11.50
2018-04-10T06:48:23.891Z,12.30
2018-04-10T06:49:23.910Z,9.90
2018-04-10T06:50:23.979Z,8.80
2018-04-10T06:51:23.942Z,12.00
2018-04-10T06:52:23.964Z,10.80
2018-04-10T06:53:23.975Z,10.30
2018-04-10T06:54:23.992Z,11.50
2018-04-10T06:55:24.010Z,10.80
2018-04-10T06:56:24.123Z,11.90
2018-04-10T06:57:24.040Z,11.30
2018-04-10T06:58:24.053Z,9.70
2018-04-10T06:59:24.074Z,8.50
2018-04-10T07:00:24.091Z,10.70
2018-04-10T07:01:24.116Z,10.30
2018-04-10T07:02:24.207Z,11.20
2018-04-10T07:03:24.147Z,9.10
2018-04-10T07:04:24.153Z,10.50
2018-04-10T07:05:24.171Z,9.70
2018-04-10T07:06:24.188Z,11.70
2018-04-10T07:07:24.201Z,11.80
2018-04-10T07:08:24.297Z,9.40
2018-04-10T07:09:24.238Z,10.40
2018-04-10T07:10:24.252Z,8.30
2018-04-10T07:11:24.271Z,9.20
2018-04-10T07:12:24.299Z,7.60
2018-04-10T07:13:24.303Z,7.70
2018-04-10T07:14:24.369Z,6.90
2018-04-10T07:15:24.346Z,9.10
2018-04-10T07:16:24.349Z,7.70
2018-04-10T07:17:24.368Z,7.50
2018-04-10T07:18:24.402Z,7.60
2018-04-10T07:19:24.401Z,7.60
2018-04-10T07:20:24.534Z,6.20
2018-04-10T07:21:24.435Z,6.20
2018-04-10T07:22:24.450Z,9.50
2018-04-10T07:23:24.469Z,7.50
2018-04-10T07:24:24.482Z,6.50
2018-04-10T07:25:24.497Z,8.00
2018-04-10T07:26:24.541Z,9.50
2018-04-10T07:27:24.531Z,9.30
2018-04-10T07:28:24.549Z,8.10
2018-04-10T07:29:24.563Z,9.60
2018-04-10T07:30:24.586Z,10.60
2018-04-10T07:31:24.596Z,10.20
2018-04-10T07:32:24.746Z,9.60
2018-04-10T07:33:24.628Z,9.20
2018-04-10T07:34:24.644Z,12.30
2018-04-10T07:35:24.660Z,9.50
2018-04-10T07:36:24.680Z,8.80
2018-04-10T07:37:24.698Z,10.10
2018-04-10T07:38:24.813Z,11.30
2018-04-10T07:39:24.727Z,10.60
2018-04-10T07:40:24.744Z,10.30
2018-04-10T07:41:24.760Z,11.20
2018-04-10T07:42:24.773Z,12.60
2018-04-10T07:43:24.791Z,10.70
2018-04-10T07:44:24.858Z,10.50
2018-04-10T07:45:24.823Z,11.40
2018-04-10T07:46:24.837Z,11.90
2018-04-10T07:47:24.854Z,11.50
2018-04-10T07:48:24.877Z,11.70
2018-04-10T07:49:24.888Z,12.90
2018-04-10T07:50:24.942Z,16.10
2018-04-10T07:51:24.925Z,11.50
2018-04-10T07:52:24.940Z,12.40
2018-04-10T07:53:24.955Z,14.00
2018-04-10T07:54:24.972Z,14.50
2018-04-10T07:55:24.985Z,14.10
2018-04-10T07:56:25.060Z,14.50
2018-04-10T07:57:25.017Z,14.80
2018-04-10T07:58:25.035Z,16.80
2018-04-10T07:59:25.052Z,15.20
2018-04-10T08:00:25.069Z,15.00
2018-04-10T08:01:25.082Z,13.10
2018-04-10T08:02:25.171Z,11.10
2018-04-10T08:03:25.115Z,14.60
2018-04-10T08:04:25.131Z,13.80
2018-04-10T08:05:25.151Z,13.30
2018-04-10T08:06:25.167Z,9.90
2018-04-10T08:07:25.181Z,14.30
2018-04-10T08:08:25.258Z,12.20
2018-04-10T08:09:25.213Z,10.50
2018-04-10T08:10:25.227Z,8.60
2018-04-10T08:11:25.244Z,10.00
2018-04-10T08:12:25.261Z,8.90
2018-04-10T08:13:25.282Z,10.30
2018-04-10T08:14:25.403Z,11.70
2018-04-10T08:15:25.313Z,13.30
2018-04-10T08:16:25.332Z,12.90
2018-04-10T08:17:25.344Z,11.20
2018-04-10T08:18:25.368Z,12.10
2018-04-10T08:19:25.425Z,10.20
2018-04-10T08:20:25.449Z,9.90
2018-04-10T08:21:25.412Z,11.00
2018-04-10T08:22:25.428Z,10.90
2018-04-10T08:23:25.441Z,12.60
2018-04-10T08:24:25.457Z,10.60
2018-04-10T08:25:25.477Z,11.20
2018-04-10T08:26:25.544Z,11.00
2018-04-10T08:27:25.510Z,7.90
2018-04-10T08:28:25.526Z,10.00
2018-04-10T08:29:25.553Z,8.80
2018-04-10T08:30:25.561Z,6.90
2018-04-10T08:31:25.580Z,6.90
2018-04-10T08:32:25.660Z,9.40
2018-04-10T08:33:25.606Z,8.90
2018-04-10T08:34:25.624Z,5.50
2018-04-10T08:35:25.642Z,8.00
2018-04-10T08:36:25.656Z,7.90
2018-04-10T08:37:25.673Z,5.50
2018-04-10T08:38:25.693Z,6.70
2018-04-10T08:39:25.707Z,7.40
2018-04-10T08:40:25.724Z,6.60
2018-04-10T08:41:25.741Z,7.90
2018-04-10T08:42:25.755Z,7.30
2018-04-10T08:43:25.773Z,8.00
2018-04-10T08:44:25.841Z,7.70
2018-04-10T08:45:25.807Z,8.20
2018-04-10T08:46:25.830Z,9.20
2018-04-10T08:47:25.839Z,7.10
2018-04-10T08:48:25.859Z,9.10
2018-04-10T08:49:25.874Z,10.10
2018-04-10T08:50:25.890Z,11.00
2018-04-10T08:51:25.907Z,10.10
2018-04-10T08:52:25.924Z,9.40
2018-04-10T08:53:25.938Z,11.60
2018-04-10T08:54:25.959Z,9.70
2018-04-10T08:55:25.983Z,10.90
2018-04-10T08:56:26.039Z,9.70
2018-04-10T08:57:26.006Z,11.60
2018-04-10T08:58:26.024Z,12.70
2018-04-10T08:59:26.048Z,12.00
2018-04-10T09:00:26.055Z,12.50
2018-04-10T09:01:26.075Z,12.30
2018-04-10T09:02:26.141Z,10.00
2018-04-10T09:03:26.106Z,11.20
2018-04-10T09:04:26.123Z,12.80
2018-04-10T09:05:26.139Z,12.70
2018-04-10T09:06:26.156Z,11.10
2018-04-10T09:07:26.173Z,11.60
2018-04-10T09:08:26.190Z,11.90
2018-04-10T09:09:26.208Z,11.10
2018-04-10T09:10:26.223Z,12.70
2018-04-10T09:11:26.241Z,14.50
2018-04-10T09:12:26.326Z,14.30
2018-04-10T09:13:26.273Z,12.80
2018-04-10T09:14:26.287Z,11.60
2018-04-10T09:15:26.306Z,12.30
2018-04-10T09:16:26.325Z,12.10
2018-04-10T09:17:26.339Z,13.40
2018-04-10T09:18:26.356Z,12.40
2018-04-10T09:20:26.390Z,12.70
2018-04-10T09:21:26.404Z,13.70
2018-04-10T09:22:26.432Z,12.20
2018-04-10T09:23:26.441Z,14.50
2018-04-10T09:24:26.455Z,12.70
2018-04-10T09:25:26.472Z,12.60
2018-04-10T09:26:26.543Z,14.90
2018-04-10T09:27:26.506Z,13.60
2018-04-10T09:28:26.524Z,13.00
2018-04-10T09:29:26.540Z,12.10
2018-04-10T09:30:26.556Z,13.50
2018-04-10T09:31:26.575Z,14.00
2018-04-10T09:32:26.642Z,14.50
2018-04-10T09:33:26.605Z,13.90
2018-04-10T09:34:26.631Z,15.50
2018-04-10T09:35:26.641Z,13.50
2018-04-10T09:36:26.687Z,13.50
2018-04-10T09:37:26.674Z,15.30
2018-04-10T09:38:26.690Z,15.10
2018-04-10T09:39:26.708Z,14.40
2018-04-10T09:40:26.726Z,15.00
2018-04-10T09:41:26.742Z,15.30
2018-04-10T09:42:26.756Z,13.60
2018-04-10T09:43:26.777Z,16.00
2018-04-10T09:44:26.794Z,15.20
2018-04-10T09:45:26.812Z,12.40
2018-04-10T09:46:26.824Z,15.30
2018-04-10T09:47:26.900Z,17.00
2018-04-10T09:48:26.865Z,13.70
2018-04-10T09:49:26.879Z,14.60
2018-04-10T09:50:26.897Z,13.90
2018-04-10T09:51:26.910Z,16.70
2018-04-10T09:52:26.950Z,14.70
2018-04-10T09:53:27.032Z,14.30
2018-04-10T09:54:26.962Z,16.00
2018-04-10T09:55:26.978Z,17.70
2018-04-10T09:56:27.048Z,15.40
2018-04-10T09:57:27.011Z,17.90
2018-04-10T09:58:27.028Z,15.60
2018-04-10T09:59:27.108Z,15.10
2018-04-10T10:00:27.085Z,18.80
2018-04-10T10:01:27.081Z,16.90
2018-04-10T10:02:27.154Z,18.40
2018-04-10T10:03:27.115Z,15.20
2018-04-10T10:04:27.130Z,18.30
2018-04-10T10:05:27.150Z,14.90
2018-04-10T10:06:27.165Z,18.30
2018-04-10T10:07:27.184Z,15.90
2018-04-10T10:08:27.201Z,16.70
2018-04-10T10:09:27.268Z,15.40
2018-04-10T10:10:27.231Z,17.70
2018-04-10T10:11:27.246Z,18.80
2018-04-10T10:14:27.298Z,16.70
2018-04-10T10:15:27.314Z,15.20
2018-04-10T10:16:27.334Z,15.60
2018-04-10T10:17:27.349Z,18.10
2018-04-10T10:18:27.365Z,18.10
2018-04-10T10:19:27.387Z,17.00
2018-04-10T10:20:27.406Z,18.70
2018-04-10T10:21:27.415Z,19.10
2018-04-10T10:22:27.434Z,16.90
2018-04-10T10:23:27.451Z,18.50
2018-04-10T10:24:27.473Z,15.40
2018-04-10T10:25:27.538Z,19.20
2018-04-10T10:26:27.500Z,16.60
2018-04-10T10:27:27.521Z,19.70
2018-04-10T10:28:27.555Z,18.40
2018-04-10T10:29:27.556Z,16.00
2018-04-10T10:30:27.567Z,16.50
2018-04-10T10:31:27.638Z,17.00
2018-04-10T10:32:27.601Z,20.10
2018-04-10T10:33:27.620Z,16.70
2018-04-10T10:34:27.720Z,15.50
2018-04-10T10:35:27.656Z,14.60
2018-04-10T10:36:27.671Z,16.70
2018-04-10T10:37:27.691Z,20.00
2018-04-10T10:38:27.711Z,17.10
2018-04-10T10:39:27.723Z,16.60
2018-04-10T10:40:27.742Z,17.40
2018-04-10T10:41:27.759Z,20.60
2018-04-10T10:42:27.772Z,18.20
2018-04-10T10:43:27.792Z,16.20
2018-04-10T10:44:27.809Z,15.80
2018-04-10T10:45:27.825Z,16.00
2018-04-10T10:46:27.844Z,17.40
2018-04-10T10:47:27.861Z,16.90
2018-04-10T10:48:27.874Z,15.70
2018-04-10T10:49:27.949Z,15.30
2018-04-10T10:50:27.915Z,16.10
2018-04-10T10:51:27.930Z,14.30
2018-04-10T10:52:27.949Z,13.40
2018-04-10T10:53:27.963Z,15.90
2018-04-10T10:54:27.983Z,12.70
2018-04-10T10:55:28.049Z,14.50
2018-04-10T10:56:28.085Z,13.20
2018-04-10T10:57:28.037Z,13.90
2018-04-10T10:58:28.055Z,15.10
2018-04-10T10:59:28.075Z,12.50
2018-04-10T11:00:28.093Z,15.00
2018-04-10T11:01:28.113Z,14.50
2018-04-10T11:02:28.122Z,14.40
2018-04-10T11:03:28.140Z,14.80
2018-04-10T11:04:28.157Z,17.00
2018-04-10T11:05:28.176Z,13.60
2018-04-10T11:06:28.223Z,13.50
2018-04-10T11:07:28.276Z,15.80
2018-04-10T11:08:28.231Z,16.90
2018-04-10T11:09:28.246Z,14.50
2018-04-10T11:10:28.264Z,16.50
2018-04-10T11:11:28.281Z,13.60
2018-04-10T11:12:28.299Z,17.80
2018-04-10T11:13:28.321Z,15.70
2018-04-10T11:14:28.338Z,14.00
2018-04-10T11:15:28.353Z,15.40
2018-04-10T11:16:28.368Z,16.70
2018-04-10T11:17:28.387Z,15.10
2018-04-10T11:18:28.423Z,13.20
2018-04-10T11:19:28.473Z,16.60
2018-04-10T11:20:28.493Z,16.10
2018-04-10T11:21:28.461Z,13.10
2018-04-10T11:22:28.476Z,12.50
2018-04-10T11:23:28.497Z,14.50
2018-04-10T11:24:28.604Z,15.00
2018-04-10T11:25:28.581Z,18.10
2018-04-10T11:26:28.547Z,14.00
2018-04-10T11:27:28.565Z,21.60
2018-04-10T11:28:28.582Z,13.30
2018-04-10T11:29:28.604Z,17.80
2018-04-10T11:30:28.625Z,12.20
2018-04-10T11:31:28.640Z,10.60
2018-04-10T11:32:28.656Z,7.50
2018-04-10T11:33:28.669Z,6.70
2018-04-10T11:34:28.687Z,6.20
2018-04-10T11:35:28.760Z,8.20
2018-04-10T11:36:28.723Z,8.20
2018-04-10T11:37:28.799Z,8.50
2018-04-10T11:38:28.757Z,9.20
2018-04-10T11:39:28.774Z,9.50
2018-04-10T11:40:28.804Z,10.30
2018-04-10T11:41:28.813Z,9.30
2018-04-10T11:42:28.827Z,8.90
2018-04-10T11:43:28.899Z,10.50
2018-04-10T11:44:28.860Z,7.40
2018-04-10T11:45:28.882Z,8.90
2018-04-10T11:46:28.895Z,9.30
2018-04-10T11:47:28.919Z,10.50
2018-04-10T11:48:28.934Z,8.80
2018-04-10T11:49:28.964Z,10.20
2018-04-10T11:50:28.967Z,11.70
2018-04-10T11:51:28.985Z,9.30
2018-04-10T11:52:29.004Z,10.10
2018-04-10T11:53:29.047Z,11.20
2018-04-10T11:54:29.039Z,13.40
2018-04-10T11:55:29.104Z,10.70
2018-04-10T11:56:29.119Z,11.40
2018-04-10T11:57:29.091Z,11.90
2018-04-10T11:58:29.109Z,12.10
2018-04-10T11:59:29.130Z,12.40
2018-04-10T12:00:29.145Z,10.80
2018-04-10T12:01:29.267Z,11.70
2018-04-10T12:02:29.182Z,10.00
2018-04-10T12:03:29.227Z,13.10
2018-04-10T12:04:29.217Z,11.30
2018-04-10T12:05:29.236Z,10.90
2018-04-10T12:06:29.338Z,10.80
2018-04-10T12:07:29.323Z,11.70
2018-04-10T12:08:29.292Z,12.00
2018-04-10T12:09:29.316Z,14.30
2018-04-10T12:10:29.331Z,12.90
2018-04-10T12:11:29.346Z,13.20
2018-04-10T12:12:29.430Z,16.30
2018-04-10T12:13:29.433Z,10.70
2018-04-10T12:14:29.402Z,12.20
2018-04-10T12:15:29.419Z,14.90
2018-04-10T12:16:29.439Z,15.60
2018-04-10T12:17:29.458Z,12.20
2018-04-10T12:18:29.474Z,13.00
2018-04-10T12:19:29.499Z,10.00
2018-04-10T12:20:29.507Z,10.80
2018-04-10T12:21:29.529Z,11.30
2018-04-10T12:22:29.544Z,12.60
2018-04-10T12:23:29.628Z,13.70
2018-04-10T12:24:29.580Z,11.30
2018-04-10T12:25:29.597Z,12.80
2018-04-10T12:26:29.618Z,13.60
2018-04-10T12:27:29.633Z,10.80
2018-04-10T12:28:29.653Z,10.70
2018-04-10T12:29:29.669Z,11.40
2018-04-10T12:30:29.684Z,11.10
2018-04-10T12:31:29.754Z,11.30
2018-04-10T12:32:29.719Z,13.20
2018-04-10T12:33:29.742Z,10.20
2018-04-10T12:34:29.757Z,13.20
2018-04-10T12:35:29.770Z,12.20
2018-04-10T12:36:29.841Z,13.00
2018-04-10T12:37:29.808Z,14.60
2018-04-10T12:38:29.824Z,15.00
2018-04-10T12:39:29.915Z,16.10
2018-04-10T12:40:29.860Z,14.00
2018-04-10T12:41:29.878Z,13.50
2018-04-10T12:42:29.918Z,13.20
2018-04-10T12:43:29.966Z,13.90
2018-04-10T12:44:29.951Z,13.70
2018-04-10T12:45:29.949Z,14.80
2018-04-10T12:46:29.966Z,16.40
2018-04-10T12:47:29.990Z,15.20
2018-04-10T12:48:30.009Z,17.70
2018-04-10T12:49:30.024Z,18.00
2018-04-10T12:50:30.040Z,16.00
2018-04-10T12:51:30.060Z,17.30
2018-04-10T12:52:30.075Z,20.10
2018-04-10T12:53:30.095Z,20.20
2018-04-10T12:54:30.114Z,13.90
2018-04-10T12:55:30.244Z,14.40
2018-04-10T12:56:30.145Z,14.00
2018-04-10T12:57:30.162Z,12.60
2018-04-10T12:58:30.182Z,15.70
2018-04-10T12:59:30.198Z,14.60